Time;durP1;ratioP1;P1;durP2;ratioP2;P2;SDS_P1;SDS_P2;PMS_P1;PMS_P2;Temp;Humidity;BMP_temperature;BMP_pressure;BME280_temperature;BME280_humidity;BME280_pressure;Samples;Min_cycle;Max_cycle;Signal;HPM_P1;HPM_P2
2024/04/10 00:00:50;;;;;;;2.63;1.70;;;11.40;99.90;;;;;;5444852;26;20973;-68
2024/04/10 00:03:22;;;;;;;2.00;1.40;;;11.30;99.90;;;;;;5444441;26;20233;-69
2024/04/10 00:05:58;;;;;;;3.53;1.53;;;11.40;99.90;;;;;;5446391;26;20226;-68
2024/04/10 00:08:24;;;;;;;2.03;1.40;;;11.50;99.90;;;;;;5476595;26;20498;-69
2024/04/10 00:10:50;;;;;;;3.77;1.53;;;11.40;99.90;;;;;;5477311;26;20446;-68
2024/04/10 00:13:16;;;;;;;3.60;1.37;;;11.50;99.90;;;;;;5474889;26;21090;-69
2024/04/10 00:15:42;;;;;;;1.90;1.40;;;11.40;99.90;;;;;;5476853;26;20345;-69
2024/04/10 00:18:07;;;;;;;3.90;1.50;;;11.40;99.90;;;;;;5414452;26;21045;-68
2024/04/10 00:20:33;;;;;;;3.20;1.70;;;11.40;99.90;;;;;;5444764;26;20245;-69
2024/04/10 00:22:59;;;;;;;1.80;1.40;;;11.50;99.90;;;;;;5474424;26;20271;-68
2024/04/10 00:25:24;;;;;;;3.40;1.83;;;11.30;99.90;;;;;;5444217;26;20214;-70
2024/04/10 00:27:50;;;;;;;2.33;1.47;;;11.20;99.90;;;;;;5443591;26;20307;-69
2024/04/10 00:30:15;;;;;;;3.33;1.80;;;11.10;99.90;;;;;;5474734;26;20495;-69
2024/04/10 00:32:41;;;;;;;3.23;1.33;;;11.20;99.90;;;;;;5476563;26;20222;-69
2024/04/10 00:35:07;;;;;;;2.97;1.60;;;11.00;99.90;;;;;;5476434;26;20651;-69
2024/04/10 00:37:32;;;;;;;3.53;1.53;;;10.90;99.90;;;;;;5444673;26;20645;-69
2024/04/10 00:39:58;;;;;;;2.40;1.47;;;11.00;99.90;;;;;;5474453;26;20603;-68
2024/04/10 00:42:23;;;;;;;3.40;1.17;;;11.00;99.90;;;;;;5444351;26;20322;-68
2024/04/10 00:44:56;;;;;;;3.43;1.23;;;11.10;99.90;;;;;;5476042;26;20266;-69
2024/04/10 00:47:23;;;;;;;6.40;1.77;;;11.10;99.90;;;;;;5444145;26;20254;-69
2024/04/10 00:49:49;;;;;;;5.13;1.50;;;11.10;99.90;;;;;;5474304;26;20438;-69
2024/04/10 00:52:16;;;;;;;1.83;1.30;;;10.90;99.90;;;;;;5474521;26;21051;-68
2024/04/10 00:54:43;;;;;;;2.77;1.40;;;10.90;99.90;;;;;;5414466;26;20465;-68
2024/04/10 00:57:09;;;;;;;3.57;1.43;;;10.90;99.90;;;;;;5474712;26;21006;-70
2024/04/10 00:59:35;;;;;;;2.20;1.73;;;11.00;99.90;;;;;;5446674;26;20446;-70
2024/04/10 01:02:04;;;;;;;2.07;1.47;;;10.60;99.90;;;;;;5474664;26;20498;-70
2024/04/10 01:04:29;;;;;;;2.87;1.27;;;10.70;99.90;;;;;;5414365;26;20667;-69
2024/04/10 01:06:55;;;;;;;4.30;2.13;;;10.40;99.90;;;;;;5474525;26;20492;-69
2024/04/10 01:09:20;;;;;;;3.60;1.57;;;10.50;99.90;;;;;;5443976;26;20765;-69
2024/04/10 01:11:46;;;;;;;2.33;1.50;;;10.70;99.90;;;;;;5474216;26;20226;-68
2024/04/10 01:14:12;;;;;;;3.07;1.30;;;10.80;99.90;;;;;;5413671;26;20333;-68
2024/04/10 01:16:37;;;;;;;2.40;1.33;;;10.70;99.90;;;;;;5443817;26;20945;-69
2024/04/10 01:19:03;;;;;;;3.93;1.40;;;10.70;99.90;;;;;;5473910;26;20263;-69
2024/04/10 01:21:29;;;;;;;4.00;1.60;;;10.70;99.90;;;;;;5474027;26;20268;-69
2024/04/10 01:23:55;;;;;;;3.70;1.80;;;10.50;99.90;;;;;;5413555;26;20274;-68
2024/04/10 01:26:20;;;;;;;2.87;1.23;;;10.30;99.90;;;;;;5413504;26;20242;-68
2024/04/10 01:28:47;;;;;;;3.43;1.67;;;10.20;99.90;;;;;;5442481;26;20225;-68
2024/04/10 01:31:12;;;;;;;1.70;1.60;;;10.00;99.90;;;;;;5443751;26;20230;-68
2024/04/10 01:33:38;;;;;;;2.50;1.50;;;10.00;99.90;;;;;;5443556;26;20492;-69
2024/04/10 01:36:04;;;;;;;3.37;1.90;;;9.90;99.90;;;;;;5413426;26;20222;-69
2024/04/10 01:38:30;;;;;;;2.80;2.10;;;9.90;99.90;;;;;;5413431;26;20224;-68
2024/04/10 01:40:56;;;;;;;2.50;1.50;;;9.90;99.90;;;;;;5473040;26;20859;-68
2024/04/10 01:43:22;;;;;;;3.93;1.97;;;9.90;99.90;;;;;;5473285;26;21697;-68
2024/04/10 01:45:47;;;;;;;2.33;1.37;;;10.00;99.90;;;;;;5413444;26;20977;-67
2024/04/10 01:48:13;;;;;;;2.50;1.37;;;9.90;99.90;;;;;;5442829;26;20235;-68
2024/04/10 01:50:39;;;;;;;1.77;1.60;;;10.00;99.90;;;;;;5472749;26;20651;-69
2024/04/10 01:53:05;;;;;;;5.67;1.80;;;9.90;99.90;;;;;;5475294;26;20234;-68
2024/04/10 01:55:30;;;;;;;4.53;1.90;;;9.90;99.90;;;;;;5443510;26;20716;-69
2024/04/10 01:57:56;;;;;;;2.03;1.70;;;9.80;99.90;;;;;;5442217;26;20510;-68
2024/04/10 02:01:52;;;;;;;2.00;1.70;;;9.70;99.90;;;;;;5481536;25;20717;-68
2024/04/10 02:04:18;;;;;;;6.30;1.77;;;9.60;99.90;;;;;;5455823;26;20527;-67
2024/04/10 02:06:43;;;;;;;1.63;1.43;;;9.60;99.90;;;;;;5455488;26;20273;-68
2024/04/10 02:09:09;;;;;;;3.63;1.50;;;9.60;99.90;;;;;;5455867;26;20281;-68
2024/04/10 02:11:38;;;;;;;1.73;1.27;;;9.70;99.90;;;;;;5457152;26;20218;-67
2024/04/10 02:14:04;;;;;;;2.90;1.60;;;9.80;99.90;;;;;;5455209;26;20222;-68
2024/04/10 02:16:30;;;;;;;3.33;1.57;;;9.90;99.90;;;;;;5457510;26;20861;-68
2024/04/10 02:18:56;;;;;;;3.53;1.80;;;9.80;99.90;;;;;;5455668;26;20442;-68
2024/04/10 02:21:22;;;;;;;2.23;1.47;;;9.90;99.90;;;;;;5455380;26;20456;-68
2024/04/10 02:23:51;;;;;;;2.40;1.60;;;9.90;99.90;;;;;;5457452;26;20782;-67
2024/04/10 02:26:17;;;;;;;2.40;1.73;;;9.80;99.90;;;;;;5455541;26;20449;-68
2024/04/10 02:28:43;;;;;;;2.70;1.80;;;9.80;99.90;;;;;;5457355;26;20719;-69
2024/04/10 02:31:09;;;;;;;2.03;1.33;;;9.90;99.90;;;;;;5455650;26;20439;-68
2024/04/10 02:33:37;;;;;;;2.93;1.70;;;10.00;99.90;;;;;;5455171;26;20241;-68
2024/04/10 02:36:04;;;;;;;3.40;1.77;;;10.10;99.90;;;;;;5457473;26;20253;-69
2024/04/10 02:38:30;;;;;;;2.40;1.40;;;10.10;99.90;;;;;;5455254;26;20457;-68
2024/04/10 02:40:56;;;;;;;1.83;1.23;;;10.20;99.90;;;;;;5456679;25;20492;-68
2024/04/10 02:43:22;;;;;;;2.40;1.50;;;10.30;99.90;;;;;;5455048;26;21141;-69
2024/04/10 02:45:58;;;;;;;3.73;1.87;;;10.30;99.90;;;;;;5456696;26;20259;-68
2024/04/10 02:48:25;;;;;;;2.60;1.60;;;10.20;99.90;;;;;;5456830;26;20438;-69
2024/04/10 02:50:51;;;;;;;2.13;1.53;;;10.20;99.90;;;;;;5425471;26;20507;-69
2024/04/10 02:53:18;;;;;;;2.00;1.60;;;10.20;99.90;;;;;;5424573;26;20464;-68
2024/04/10 02:55:49;;;;;;;3.80;1.80;;;10.10;99.90;;;;;;5455178;26;20442;-68
2024/04/10 02:58:15;;;;;;;1.90;1.30;;;10.20;99.90;;;;;;5455171;26;20737;-69
2024/04/10 03:00:48;;;;;;;4.23;1.60;;;10.20;99.90;;;;;;5455187;26;20966;-68
2024/04/10 03:03:14;;;;;;;2.17;1.37;;;10.20;99.90;;;;;;5456544;26;21010;-68
2024/04/10 03:05:40;;;;;;;3.80;1.90;;;10.10;99.90;;;;;;5466956;26;20498;-67
2024/04/10 03:08:06;;;;;;;1.60;1.50;;;10.00;99.90;;;;;;5490876;26;20423;-70
2024/04/10 03:10:32;;;;;;;1.47;1.20;;;9.80;99.90;;;;;;5460781;26;20457;-68
2024/04/10 03:12:58;;;;;;;3.07;1.40;;;9.80;99.90;;;;;;5419655;26;20520;-67
2024/04/10 03:15:23;;;;;;;2.70;1.40;;;9.80;99.90;;;;;;5439367;26;20241;-69
2024/04/10 03:17:50;;;;;;;2.57;1.43;;;9.80;99.90;;;;;;5438731;26;20332;-68
2024/04/10 03:20:17;;;;;;;3.53;1.57;;;9.70;99.90;;;;;;5439122;26;20309;-69
2024/04/10 03:22:43;;;;;;;2.50;1.60;;;9.70;99.90;;;;;;5439049;26;21074;-69
2024/04/10 03:25:08;;;;;;;4.20;1.77;;;9.60;99.90;;;;;;5438882;26;20451;-68
2024/04/10 03:27:34;;;;;;;3.63;1.40;;;9.60;99.90;;;;;;5438896;26;20429;-68
2024/04/10 03:30:00;;;;;;;3.00;1.73;;;9.50;99.90;;;;;;5438792;26;20241;-68
2024/04/10 03:32:27;;;;;;;5.20;1.90;;;9.40;99.90;;;;;;5440924;26;20467;-68
2024/04/10 03:34:53;;;;;;;2.87;1.50;;;9.40;99.90;;;;;;5438751;26;20466;-68
2024/04/10 03:37:19;;;;;;;6.80;2.00;;;9.40;99.90;;;;;;5438665;26;21071;-68
2024/04/10 03:39:45;;;;;;;4.00;1.87;;;9.30;99.90;;;;;;5438741;26;20222;-69
2024/04/10 03:42:10;;;;;;;2.20;1.70;;;9.40;99.90;;;;;;5445783;26;20450;-69
2024/04/10 03:44:36;;;;;;;5.00;1.83;;;9.30;99.90;;;;;;5475117;26;20620;-68
2024/04/10 03:47:02;;;;;;;2.43;1.50;;;9.30;99.90;;;;;;5444835;26;20214;-69
2024/04/10 03:49:28;;;;;;;1.87;1.37;;;9.30;99.90;;;;;;5474871;26;20236;-68
2024/04/10 03:51:54;;;;;;;2.20;1.50;;;9.30;99.90;;;;;;5420046;26;20690;-68
2024/04/10 03:54:20;;;;;;;3.87;1.83;;;9.40;99.90;;;;;;5438612;26;20570;-69
2024/04/10 03:56:45;;;;;;;3.00;1.67;;;9.30;99.90;;;;;;5408701;26;20337;-68
2024/04/10 03:59:11;;;;;;;4.63;1.83;;;9.40;99.90;;;;;;5408510;26;21683;-69
2024/04/10 04:01:37;;;;;;;6.13;1.70;;;9.50;99.90;;;;;;5408144;26;20280;-69
2024/04/10 04:04:05;;;;;;;4.67;1.80;;;9.60;99.90;;;;;;5438231;26;20303;-69
2024/04/10 04:06:31;;;;;;;4.50;2.17;;;9.60;99.90;;;;;;5440287;26;20286;-68
2024/04/10 04:08:56;;;;;;;2.47;1.70;;;9.70;99.90;;;;;;5438472;26;20443;-68
2024/04/10 04:11:22;;;;;;;3.10;2.00;;;9.70;99.90;;;;;;5408132;26;20216;-69
2024/04/10 04:13:48;;;;;;;5.20;1.60;;;9.50;99.90;;;;;;5439790;26;20230;-68
2024/04/10 04:16:14;;;;;;;3.20;1.80;;;9.60;99.90;;;;;;5438261;26;20222;-67
2024/04/10 04:18:40;;;;;;;3.23;1.83;;;9.60;99.90;;;;;;5442845;26;20379;-68
2024/04/10 04:21:06;;;;;;;3.67;1.90;;;9.60;99.90;;;;;;5474250;26;20232;-68
2024/04/10 04:23:31;;;;;;;4.10;1.87;;;9.60;99.90;;;;;;5409913;26;20574;-69
2024/04/10 04:25:57;;;;;;;3.33;1.77;;;9.50;99.90;;;;;;5438183;26;20257;-68
2024/04/10 04:28:23;;;;;;;3.97;1.77;;;9.60;99.90;;;;;;5409848;26;20643;-68
2024/04/10 04:30:49;;;;;;;4.97;1.97;;;9.60;99.90;;;;;;5408319;26;20303;-69
2024/04/10 04:33:16;;;;;;;10.93;1.97;;;9.60;99.90;;;;;;5437832;26;20337;-69
2024/04/10 04:35:41;;;;;;;1.80;1.53;;;9.70;99.90;;;;;;5438416;26;20487;-69
2024/04/10 04:38:08;;;;;;;3.57;1.53;;;9.70;99.90;;;;;;5408378;26;20520;-69
2024/04/10 04:40:33;;;;;;;3.07;1.73;;;9.60;99.90;;;;;;5453791;26;20217;-68
2024/04/10 04:43:09;;;;;;;2.07;1.20;;;9.60;99.90;;;;;;5449833;26;20586;-69
2024/04/10 04:45:38;;;;;;;1.83;1.40;;;9.70;99.90;;;;;;5410494;26;20390;-69
2024/04/10 04:48:05;;;;;;;3.23;1.87;;;9.70;99.90;;;;;;5440915;26;20450;-69
2024/04/10 04:50:31;;;;;;;3.57;1.93;;;9.70;99.90;;;;;;5468622;26;20484;-69
2024/04/10 04:52:57;;;;;;;4.47;2.00;;;9.60;99.90;;;;;;5407509;26;20486;-69
2024/04/10 04:55:22;;;;;;;5.57;2.10;;;9.40;99.90;;;;;;5458741;26;20241;-69
2024/04/10 04:57:48;;;;;;;7.70;2.40;;;9.50;99.90;;;;;;5443722;26;20244;-69
2024/04/10 05:00:19;;;;;;;2.93;1.60;;;9.40;99.90;;;;;;5443582;26;20232;-69
2024/04/10 05:02:45;;;;;;;1.80;1.50;;;9.50;99.90;;;;;;5453878;26;20228;-68
2024/04/10 05:05:18;;;;;;;4.90;1.90;;;9.60;99.90;;;;;;5443794;26;20457;-69
2024/04/10 05:07:45;;;;;;;4.50;1.90;;;9.70;99.90;;;;;;5439777;26;20443;-68
2024/04/10 05:10:11;;;;;;;3.70;2.20;;;9.80;99.90;;;;;;5439254;26;20479;-70
2024/04/10 05:12:38;;;;;;;6.60;2.17;;;9.70;99.90;;;;;;5437666;26;20516;-69
2024/04/10 05:15:06;;;;;;;4.73;1.70;;;9.70;99.90;;;;;;5439458;26;20499;-68
2024/04/10 05:17:32;;;;;;;4.00;1.70;;;9.90;99.90;;;;;;5437482;26;20461;-68
2024/04/10 05:19:58;;;;;;;6.60;1.80;;;10.00;99.90;;;;;;5468526;26;20929;-68
2024/04/10 05:22:23;;;;;;;3.67;1.70;;;10.10;99.90;;;;;;5460560;26;20459;-68
2024/04/10 05:24:49;;;;;;;5.53;2.10;;;10.10;99.90;;;;;;5473266;26;20464;-69
2024/04/10 05:27:26;;;;;;;5.97;1.90;;;10.20;99.90;;;;;;5473478;26;20216;-68
2024/04/10 05:29:59;;;;;;;6.00;2.20;;;10.20;99.90;;;;;;5455609;26;20228;-68
2024/04/10 05:32:29;;;;;;;3.27;1.90;;;10.40;99.90;;;;;;5436875;26;20506;-68
2024/04/10 05:34:55;;;;;;;3.63;1.80;;;10.40;99.90;;;;;;5436542;26;20550;-68
2024/04/10 05:37:22;;;;;;;7.10;2.70;;;10.20;99.90;;;;;;5470882;26;20502;-69
2024/04/10 05:40:09;;;;;;;4.07;2.20;;;10.10;99.90;;;;;;5447582;26;20742;-71
2024/04/10 05:42:39;;;;;;;8.57;2.43;;;10.00;99.90;;;;;;5438879;26;20453;-69
2024/04/10 05:45:08;;;;;;;5.03;2.20;;;10.00;99.90;;;;;;5439592;26;20856;-69
2024/04/10 05:47:35;;;;;;;6.53;1.90;;;10.10;99.90;;;;;;5461251;26;21082;-69
2024/04/10 05:50:00;;;;;;;7.67;2.07;;;10.10;99.90;;;;;;5438236;26;20452;-70
2024/04/10 05:52:26;;;;;;;2.83;1.40;;;10.00;99.90;;;;;;5436499;26;20845;-69
2024/04/10 05:54:53;;;;;;;2.97;2.00;;;10.00;99.90;;;;;;5436327;26;20586;-68
2024/04/10 05:57:19;;;;;;;2.30;1.70;;;10.10;99.90;;;;;;5437028;26;20270;-68
2024/04/10 05:59:45;;;;;;;6.27;2.37;;;10.30;99.90;;;;;;5437989;26;20450;-68
2024/04/10 06:02:10;;;;;;;4.63;2.10;;;10.40;99.90;;;;;;5438467;26;20517;-68
2024/04/10 06:04:36;;;;;;;4.60;1.93;;;10.20;99.90;;;;;;5438180;26;20266;-68
2024/04/10 06:07:02;;;;;;;6.53;2.40;;;10.20;99.90;;;;;;5406322;26;20223;-68
2024/04/10 06:09:28;;;;;;;4.80;1.77;;;10.20;99.90;;;;;;5441809;26;20774;-69
2024/04/10 06:11:54;;;;;;;5.90;2.40;;;10.00;99.90;;;;;;5467347;26;20464;-69
2024/04/10 06:14:20;;;;;;;2.73;1.60;;;9.70;99.90;;;;;;5436728;26;20465;-68
2024/04/10 06:16:46;;;;;;;6.07;2.10;;;9.80;99.90;;;;;;5436886;26;20212;-69
2024/04/10 06:19:11;;;;;;;3.37;1.87;;;9.70;99.90;;;;;;5406957;26;20254;-70
2024/04/10 06:21:37;;;;;;;4.87;2.00;;;9.70;99.90;;;;;;5436529;26;21028;-69
2024/04/10 06:24:04;;;;;;;4.80;2.00;;;9.80;99.90;;;;;;5436311;26;20234;-69
2024/04/10 06:26:30;;;;;;;4.53;2.30;;;10.00;99.90;;;;;;5436227;26;20220;-68
2024/04/10 06:28:55;;;;;;;5.67;2.00;;;9.90;99.90;;;;;;5436544;26;20556;-68
2024/04/10 06:31:21;;;;;;;5.00;2.10;;;9.90;99.90;;;;;;5444542;26;20221;-69
2024/04/10 06:33:47;;;;;;;8.30;2.27;;;9.90;99.90;;;;;;5436071;26;20282;-70
2024/04/10 06:36:12;;;;;;;4.17;1.90;;;10.00;99.90;;;;;;5438142;26;20265;-68
2024/04/10 06:38:38;;;;;;;7.43;2.47;;;10.00;99.90;;;;;;5437744;26;20849;-69
2024/04/10 06:41:04;;;;;;;2.37;1.10;;;10.00;99.90;;;;;;5406397;26;20219;-68
2024/04/10 06:43:32;;;;;;;6.13;2.43;;;10.20;99.90;;;;;;5438647;26;20593;-69
2024/04/10 06:45:59;;;;;;;3.53;1.70;;;10.30;99.90;;;;;;5406296;26;20870;-69
2024/04/10 06:48:26;;;;;;;6.00;1.93;;;10.30;99.90;;;;;;5440870;26;20789;-69
2024/04/10 06:51:03;;;;;;;4.40;1.80;;;10.40;99.90;;;;;;5440221;26;20492;-69
2024/04/10 06:53:29;;;;;;;9.07;2.50;;;10.60;99.90;;;;;;5457648;26;20512;-69
2024/04/10 06:55:56;;;;;;;6.23;2.40;;;10.70;99.90;;;;;;5475793;26;21051;-68
2024/04/10 06:58:26;;;;;;;9.33;2.03;;;10.80;99.90;;;;;;5475896;26;20429;-68
2024/04/10 07:01:03;;;;;;;7.97;2.67;;;10.60;99.90;;;;;;5477216;26;20503;-69
2024/04/10 07:03:42;;;;;;;100.00;19.00;;;10.40;99.90;;;;;;5453237;26;20573;-68
2024/04/10 07:06:13;;;;;;;6.97;2.10;;;10.50;99.90;;;;;;5448160;26;20766;-68
2024/04/10 07:08:41;;;;;;;5.03;2.23;;;10.70;99.90;;;;;;5464202;26;20439;-68
2024/04/10 07:11:11;;;;;;;5.80;2.40;;;10.80;99.90;;;;;;5477199;26;21064;-69
2024/04/10 07:13:56;;;;;;;7.80;2.20;;;10.80;99.90;;;;;;5416954;26;21069;-68
2024/04/10 07:16:26;;;;;;;7.30;2.17;;;10.90;99.90;;;;;;5475857;26;20447;-68
2024/04/10 07:18:55;;;;;;;4.70;2.10;;;11.00;99.90;;;;;;5475779;26;20462;-69
2024/04/10 07:21:21;;;;;;;12.13;3.60;;;10.90;99.90;;;;;;5477348;26;20502;-69
2024/04/10 07:23:48;;;;;;;10.60;3.10;;;10.80;99.90;;;;;;5445006;26;20575;-69
2024/04/10 07:26:22;;;;;;;9.60;3.60;;;10.80;99.90;;;;;;5468608;26;20509;-69
2024/04/10 07:28:52;;;;;;;7.07;2.40;;;10.80;99.90;;;;;;5475400;26;20439;-69
2024/04/10 07:31:28;;;;;;;11.93;2.80;;;10.70;99.90;;;;;;5437715;26;20468;-69
2024/04/10 07:33:55;;;;;;;10.70;2.83;;;10.90;99.90;;;;;;5440712;26;20524;-68
2024/04/10 07:36:21;;;;;;;10.03;2.80;;;11.10;99.90;;;;;;5443093;26;20471;-69
2024/04/10 07:38:48;;;;;;;7.43;2.70;;;11.10;99.90;;;;;;5445114;26;20443;-68
2024/04/10 07:41:14;;;;;;;9.17;2.87;;;11.00;99.90;;;;;;5412424;26;20507;-69
2024/04/10 07:43:41;;;;;;;10.27;3.20;;;11.00;99.90;;;;;;5413269;26;20579;-68
2024/04/10 07:46:10;;;;;;;9.63;2.90;;;11.00;99.90;;;;;;5440442;26;20442;-69
2024/04/10 07:48:37;;;;;;;9.67;2.90;;;11.00;99.90;;;;;;5440382;26;20448;-69
2024/04/10 07:51:04;;;;;;;12.20;4.23;;;10.90;99.90;;;;;;5440843;26;20533;-68
2024/04/10 07:53:30;;;;;;;12.73;3.20;;;10.60;99.90;;;;;;5440536;26;20501;-68
2024/04/10 07:55:56;;;;;;;12.13;3.20;;;10.80;99.90;;;;;;5438493;26;20835;-68
2024/04/10 07:58:21;;;;;;;8.37;2.63;;;10.90;99.90;;;;;;5438323;26;20499;-67
2024/04/10 08:00:47;;;;;;;10.33;3.90;;;10.90;99.90;;;;;;5438099;26;20231;-69
2024/04/10 08:03:13;;;;;;;6.07;2.70;;;11.10;99.90;;;;;;5444231;26;20279;-68
2024/04/10 08:05:38;;;;;;;6.30;2.30;;;11.10;99.90;;;;;;5462063;26;20562;-67
2024/04/10 08:08:04;;;;;;;7.60;3.03;;;11.00;99.90;;;;;;5474866;26;20675;-69
2024/04/10 08:10:29;;;;;;;7.53;2.83;;;10.90;99.90;;;;;;5476624;26;20226;-67
2024/04/10 08:12:55;;;;;;;8.10;2.40;;;11.10;99.90;;;;;;5457031;26;20266;-66
2024/04/10 08:15:24;;;;;;;10.13;2.90;;;11.20;99.90;;;;;;5438483;26;20321;-68
2024/04/10 08:17:50;;;;;;;12.47;3.23;;;11.10;99.90;;;;;;5408665;26;20214;-68
2024/04/10 08:20:16;;;;;;;9.07;3.50;;;11.00;99.90;;;;;;5440744;26;20517;-69
2024/04/10 08:22:42;;;;;;;6.87;2.60;;;11.10;99.90;;;;;;5440569;26;20227;-69
2024/04/10 08:25:08;;;;;;;9.60;2.87;;;11.20;99.90;;;;;;5409486;26;20453;-69
2024/04/10 08:27:34;;;;;;;10.27;2.80;;;11.40;99.90;;;;;;5443770;26;20231;-69
2024/04/10 08:30:00;;;;;;;7.73;2.80;;;11.30;99.90;;;;;;5444243;26;20565;-70
2024/04/10 08:32:25;;;;;;;10.00;2.77;;;11.30;99.90;;;;;;5404089;26;20251;-68
2024/04/10 08:34:51;;;;;;;8.77;3.43;;;11.50;99.90;;;;;;5437889;26;20227;-70
2024/04/10 08:37:16;;;;;;;6.93;2.90;;;11.40;99.90;;;;;;5438423;26;20211;-70
2024/04/10 08:39:47;;;;;;;7.20;2.90;;;11.50;99.90;;;;;;5439676;26;20717;-70
2024/04/10 08:42:16;;;;;;;12.30;2.77;;;11.70;99.90;;;;;;5437788;26;20221;-69
2024/04/10 08:44:42;;;;;;;8.17;3.10;;;11.80;99.90;;;;;;5437686;26;20471;-70
2024/04/10 08:47:08;;;;;;;12.40;3.47;;;12.10;99.90;;;;;;5437909;26;20518;-69
2024/04/10 08:49:36;;;;;;;9.40;2.80;;;11.90;99.90;;;;;;5438336;26;20231;-70
2024/04/10 08:52:02;;;;;;;8.27;2.80;;;11.70;99.90;;;;;;5464442;26;20518;-70
2024/04/10 08:54:30;;;;;;;6.53;2.20;;;11.40;99.90;;;;;;5453705;26;20467;-69
2024/04/10 08:56:55;;;;;;;13.60;2.80;;;11.60;99.90;;;;;;5443736;26;20492;-69
2024/04/10 08:59:23;;;;;;;7.40;2.90;;;11.80;99.90;;;;;;5462713;26;21045;-69
2024/04/10 09:01:49;;;;;;;6.90;2.77;;;11.90;99.90;;;;;;5416672;26;20844;-70
2024/04/10 09:04:17;;;;;;;10.63;2.50;;;11.90;99.90;;;;;;5407692;26;20856;-67
2024/04/10 09:06:43;;;;;;;9.77;3.13;;;12.00;99.90;;;;;;5437675;26;20236;-69
2024/04/10 09:09:09;;;;;;;7.00;3.00;;;12.30;99.90;;;;;;5436837;26;20547;-69
2024/04/10 09:11:35;;;;;;;4.17;2.60;;;12.60;99.90;;;;;;5437436;26;20219;-69
2024/04/10 09:14:09;;;;;;;6.33;3.17;;;12.60;99.90;;;;;;5437664;26;20278;-69
2024/04/10 09:16:35;;;;;;;10.13;2.90;;;12.70;99.90;;;;;;5439005;26;20581;-68
2024/04/10 09:19:12;;;;;;;8.27;2.40;;;12.70;99.90;;;;;;5437425;26;20502;-69
2024/04/10 09:21:40;;;;;;;6.40;3.20;;;12.80;99.90;;;;;;5437053;26;20856;-69
2024/04/10 09:24:08;;;;;;;9.90;3.00;;;12.50;99.90;;;;;;5437095;26;20453;-68
2024/04/10 09:26:35;;;;;;;6.93;3.13;;;12.30;99.90;;;;;;5415463;26;20455;-69
2024/04/10 09:29:18;;;;;;;7.60;2.97;;;12.40;99.90;;;;;;5468722;26;20561;-70
2024/04/10 09:31:47;;;;;;;7.00;2.80;;;12.70;99.90;;;;;;5443038;26;20468;-69
2024/04/10 09:34:21;;;;;;;5.50;2.13;;;12.50;99.90;;;;;;5408002;26;20558;-67
2024/04/10 09:36:47;;;;;;;6.90;2.93;;;12.40;99.30;;;;;;5411639;26;20464;-69
2024/04/10 09:39:17;;;;;;;5.87;2.33;;;12.40;99.50;;;;;;5439138;26;20798;-68
2024/04/10 09:41:45;;;;;;;7.13;2.67;;;12.60;98.90;;;;;;5408101;26;20478;-69
2024/04/10 09:44:10;;;;;;;6.53;2.57;;;13.00;98.80;;;;;;5436986;26;20863;-69
2024/04/10 09:46:37;;;;;;;5.67;2.73;;;13.20;97.50;;;;;;5406991;26;20545;-69
2024/04/10 09:49:09;;;;;;;5.63;2.40;;;13.20;98.00;;;;;;5436763;26;20652;-68
2024/04/10 09:51:39;;;;;;;6.17;2.40;;;13.40;97.40;;;;;;5436867;26;20636;-68
2024/04/10 09:54:06;;;;;;;5.10;2.40;;;13.60;97.90;;;;;;5438497;26;20466;-69
2024/04/10 09:56:35;;;;;;;10.43;2.90;;;13.70;97.00;;;;;;5436985;26;20619;-68
2024/04/10 09:59:01;;;;;;;5.13;1.97;;;13.90;96.70;;;;;;5406836;26;20504;-67
2024/04/10 10:01:26;;;;;;;9.23;3.10;;;13.60;96.60;;;;;;5406684;26;20464;-68
2024/04/10 10:03:56;;;;;;;10.30;3.00;;;13.40;96.50;;;;;;5443484;26;20510;-68
2024/04/10 10:06:27;;;;;;;4.10;2.47;;;13.70;95.90;;;;;;5442548;26;20232;-68
2024/04/10 10:08:54;;;;;;;5.27;2.33;;;13.70;94.90;;;;;;5472824;26;20503;-68
2024/04/10 10:11:20;;;;;;;6.40;2.20;;;13.60;94.80;;;;;;5472759;26;20544;-69
2024/04/10 10:14:07;;;;;;;4.67;2.60;;;13.40;94.90;;;;;;5415393;26;21217;-69
2024/04/10 10:16:32;;;;;;;4.17;2.00;;;13.60;95.10;;;;;;5436791;26;22135;-69
2024/04/10 10:18:59;;;;;;;3.73;2.00;;;14.00;94.60;;;;;;5435989;26;20435;-67
2024/04/10 10:21:27;;;;;;;7.10;2.20;;;14.50;94.30;;;;;;5437724;26;20463;-68
2024/04/10 10:23:56;;;;;;;5.07;1.80;;;14.70;93.00;;;;;;5441653;26;20464;-69
2024/04/10 10:26:22;;;;;;;5.50;1.73;;;15.20;92.10;;;;;;5445092;26;20444;-68
2024/04/10 10:28:48;;;;;;;5.27;2.40;;;15.20;90.60;;;;;;5477699;26;20450;-68
2024/04/10 10:31:16;;;;;;;6.73;2.40;;;15.10;90.60;;;;;;5477827;26;20502;-68
2024/04/10 10:33:43;;;;;;;4.73;1.80;;;14.80;91.00;;;;;;5441300;26;21047;-67
2024/04/10 10:36:09;;;;;;;6.97;2.00;;;15.10;91.00;;;;;;5439634;26;20983;-67
2024/04/10 10:38:34;;;;;;;6.93;2.23;;;14.80;90.50;;;;;;5439862;26;20515;-69
2024/04/10 10:41:07;;;;;;;18.43;4.23;;;14.50;90.70;;;;;;5439390;26;20550;-68
2024/04/10 10:43:33;;;;;;;4.80;2.00;;;14.60;91.00;;;;;;5448862;26;20652;-68
2024/04/10 10:45:59;;;;;;;4.33;2.10;;;15.00;90.10;;;;;;5439817;26;20537;-69
2024/04/10 10:48:26;;;;;;;4.03;2.20;;;15.00;88.50;;;;;;5440978;26;20707;-69
2024/04/10 10:50:58;;;;;;;3.80;1.53;;;15.50;87.20;;;;;;5442340;26;20224;-70
2024/04/10 10:53:27;;;;;;;4.63;1.50;;;16.20;82.00;;;;;;5453372;26;20475;-70
2024/04/10 10:55:54;;;;;;;6.07;2.00;;;16.20;80.90;;;;;;5445735;26;20455;-71
2024/04/10 10:58:21;;;;;;;3.67;1.90;;;16.60;79.20;;;;;;5441043;26;20441;-70
2024/04/10 11:00:48;;;;;;;5.17;1.60;;;16.60;77.50;;;;;;5440400;26;20464;-69
2024/04/10 11:03:17;;;;;;;3.90;1.97;;;17.30;76.80;;;;;;5461505;26;20466;-70
2024/04/10 11:05:44;;;;;;;5.00;2.10;;;17.50;76.30;;;;;;5478680;26;20546;-69
2024/04/10 11:08:09;;;;;;;3.23;1.40;;;17.50;71.50;;;;;;5446475;26;20443;-68
2024/04/10 11:10:35;;;;;;;64.47;12.67;;;16.90;71.50;;;;;;5440824;26;20487;-70
2024/04/10 11:13:04;;;;;;;9.00;2.73;;;16.40;71.90;;;;;;5441885;26;20224;-69
2024/04/10 11:15:43;;;;;;;3.90;1.77;;;16.60;72.70;;;;;;5440336;26;20495;-69
2024/04/10 11:18:12;;;;;;;8.03;2.10;;;16.40;73.10;;;;;;5442483;26;21477;-69
2024/04/10 11:20:38;;;;;;;4.53;2.03;;;16.80;74.60;;;;;;5440096;26;20990;-69
2024/04/10 11:23:07;;;;;;;5.67;2.30;;;17.30;75.50;;;;;;5410296;26;20524;-69
2024/04/10 11:25:34;;;;;;;3.20;1.30;;;18.90;71.50;;;;;;5441832;26;20219;-69
2024/04/10 11:28:00;;;;;;;4.43;2.13;;;20.70;66.20;;;;;;5446274;26;20506;-70
2024/04/10 11:30:26;;;;;;;3.30;1.43;;;20.70;61.00;;;;;;5478018;26;20439;-68
2024/04/10 11:32:53;;;;;;;5.03;2.00;;;21.30;62.20;;;;;;5433627;26;20472;-70
2024/04/10 11:35:19;;;;;;;5.67;1.60;;;22.20;56.80;;;;;;5465935;26;20479;-70
2024/04/10 11:37:52;;;;;;;2.83;1.40;;;22.60;57.30;;;;;;5428206;26;20451;-69
2024/04/10 11:40:19;;;;;;;4.60;1.70;;;22.30;54.60;;;;;;5478246;26;21192;-69
2024/04/10 11:42:48;;;;;;;2.37;1.40;;;20.30;57.60;;;;;;5468699;26;20456;-69
2024/04/10 11:45:15;;;;;;;4.10;1.40;;;19.90;56.20;;;;;;5441020;26;20488;-69
2024/04/10 11:47:42;;;;;;;3.17;1.50;;;18.90;56.80;;;;;;5439338;26;20505;-69
2024/04/10 11:50:08;;;;;;;6.63;1.93;;;17.40;59.90;;;;;;5409663;26;20441;-69
2024/04/10 11:52:35;;;;;;;3.50;1.50;;;17.50;64.10;;;;;;5409673;26;20545;-68
2024/04/10 11:55:03;;;;;;;6.00;2.00;;;18.10;60.50;;;;;;5474195;26;20436;-70
2024/04/10 11:57:28;;;;;;;3.70;1.77;;;19.70;60.00;;;;;;5476874;26;20459;-69
2024/04/10 11:59:54;;;;;;;4.70;1.60;;;20.90;57.20;;;;;;5388448;26;20511;-68
2024/04/10 12:02:21;;;;;;;3.07;1.60;;;20.80;55.60;;;;;;5408791;26;20855;-69
2024/04/10 12:04:48;;;;;;;5.37;1.50;;;21.30;53.60;;;;;;5446862;26;20226;-70
2024/04/10 12:07:14;;;;;;;6.30;1.90;;;21.80;53.60;;;;;;5465166;26;21048;-70
2024/04/10 12:09:40;;;;;;;6.00;1.47;;;22.40;51.40;;;;;;5438813;26;20879;-70
2024/04/10 12:12:07;;;;;;;4.67;1.50;;;22.60;51.20;;;;;;5408757;26;20589;-70
2024/04/10 12:14:32;;;;;;;16.83;4.07;;;23.60;47.90;;;;;;5438302;26;20476;-69
2024/04/10 12:16:58;;;;;;;9.17;2.43;;;24.50;47.50;;;;;;5438835;26;21227;-70
2024/04/10 12:19:26;;;;;;;6.07;1.90;;;25.70;44.40;;;;;;5438820;26;21098;-69
2024/04/10 12:21:53;;;;;;;3.30;1.50;;;23.40;47.00;;;;;;5438584;26;20493;-69
2024/04/10 12:24:19;;;;;;;7.17;1.50;;;22.90;48.90;;;;;;5438061;26;20574;-68
2024/04/10 12:26:45;;;;;;;5.73;1.57;;;23.00;47.30;;;;;;5439978;26;20440;-69
2024/04/10 12:29:10;;;;;;;3.33;1.07;;;23.20;46.70;;;;;;5408652;26;20457;-69
2024/04/10 12:31:37;;;;;;;2.80;1.50;;;23.30;45.90;;;;;;5407903;26;20555;-69
2024/04/10 12:34:04;;;;;;;3.27;1.70;;;23.50;45.00;;;;;;5438399;26;20741;-69
2024/04/10 12:39:16;;;;;;;4.47;1.80;;;22.30;46.30;;;;;;5438593;26;20936;-69
2024/04/10 12:41:42;;;;;;;19.80;5.13;;;23.10;48.10;;;;;;5438495;26;20444;-69
2024/04/10 12:44:18;;;;;;;2.30;1.27;;;23.80;45.50;;;;;;5436775;26;20515;-70
2024/04/10 12:46:45;;;;;;;5.70;1.63;;;25.30;45.40;;;;;;5438336;26;20440;-70
2024/04/10 12:49:10;;;;;;;4.93;1.60;;;24.40;44.80;;;;;;5438124;26;20453;-69
2024/04/10 12:51:37;;;;;;;4.60;1.70;;;24.70;45.20;;;;;;5438062;26;20553;-68